sensor_id;sensor_type;location;lat;lon;timestamp;P1;durP1;ratioP1;P2;durP2;ratioP2
25509;SDS011;13413;52.336;21.200;2023-07-29T00:05:42;6.80;;;6.20;;
25509;SDS011;13413;52.336;21.200;2023-07-29T00:08:36;7.20;;;6.60;;
25509;SDS011;13413;52.336;21.200;2023-07-29T00:11:30;7.80;;;7.00;;
25509;SDS011;13413;52.336;21.200;2023-07-29T00:14:24;7.50;;;6.70;;
25509;SDS011;13413;52.336;21.200;2023-07-29T00:17:18;7.20;;;6.50;;
25509;SDS011;13413;52.336;21.200;2023-07-29T00:20:12;8.60;;;7.00;;
25509;SDS011;13413;52.336;21.200;2023-07-29T00:23:09;7.70;;;6.90;;
25509;SDS011;13413;52.336;21.200;2023-07-29T00:26:02;11.30;;;7.90;;
25509;SDS011;13413;52.336;21.200;2023-07-29T00:28:56;7.40;;;6.70;;
25509;SDS011;13413;52.336;21.200;2023-07-29T00:31:50;7.20;;;6.40;;
25509;SDS011;13413;52.336;21.200;2023-07-29T00:34:44;8.30;;;6.80;;
25509;SDS011;13413;52.336;21.200;2023-07-29T00:37:38;7.40;;;6.70;;
25509;SDS011;13413;52.336;21.200;2023-07-29T00:40:32;8.40;;;7.60;;
25509;SDS011;13413;52.336;21.200;2023-07-29T00:43:29;8.00;;;7.30;;
25509;SDS011;13413;52.336;21.200;2023-07-29T00:46:22;8.60;;;7.50;;
25509;SDS011;13413;52.336;21.200;2023-07-29T00:49:16;8.20;;;7.50;;
25509;SDS011;13413;52.336;21.200;2023-07-29T00:52:10;9.20;;;8.30;;
25509;SDS011;13413;52.336;21.200;2023-07-29T00:55:18;9.60;;;8.60;;
25509;SDS011;13413;52.336;21.200;2023-07-29T01:01:19;7.40;;;6.70;;
25509;SDS011;13413;52.336;21.200;2023-07-29T01:04:16;7.80;;;7.00;;
25509;SDS011;13413;52.336;21.200;2023-07-29T01:07:11;7.50;;;6.70;;
25509;SDS011;13413;52.336;21.200;2023-07-29T01:10:15;10.00;;;7.30;;
25509;SDS011;13413;52.336;21.200;2023-07-29T01:13:20;7.30;;;6.70;;
25509;SDS011;13413;52.336;21.200;2023-07-29T01:16:20;7.60;;;7.00;;
25509;SDS011;13413;52.336;21.200;2023-07-29T01:19:20;8.40;;;7.60;;
25509;SDS011;13413;52.336;21.200;2023-07-29T01:22:23;8.30;;;7.10;;
25509;SDS011;13413;52.336;21.200;2023-07-29T01:28:12;8.10;;;7.30;;
25509;SDS011;13413;52.336;21.200;2023-07-29T01:31:09;8.70;;;7.20;;
25509;SDS011;13413;52.336;21.200;2023-07-29T01:34:09;9.50;;;6.70;;
25509;SDS011;13413;52.336;21.200;2023-07-29T01:37:09;10.10;;;7.70;;
25509;SDS011;13413;52.336;21.200;2023-07-29T01:40:10;7.90;;;7.20;;
25509;SDS011;13413;52.336;21.200;2023-07-29T01:43:04;8.80;;;6.90;;
25509;SDS011;13413;52.336;21.200;2023-07-29T01:45:59;8.80;;;7.20;;
25509;SDS011;13413;52.336;21.200;2023-07-29T01:48:53;8.10;;;7.10;;
25509;SDS011;13413;52.336;21.200;2023-07-29T01:51:47;11.20;;;7.70;;
25509;SDS011;13413;52.336;21.200;2023-07-29T01:54:41;10.90;;;8.10;;
25509;SDS011;13413;52.336;21.200;2023-07-29T01:57:35;8.60;;;7.70;;
25509;SDS011;13413;52.336;21.200;2023-07-29T02:00:30;7.90;;;7.20;;
25509;SDS011;13413;52.336;21.200;2023-07-29T02:03:23;7.60;;;6.80;;
25509;SDS011;13413;52.336;21.200;2023-07-29T02:06:17;14.40;;;7.70;;
25509;SDS011;13413;52.336;21.200;2023-07-29T02:09:29;24.70;;;11.00;;
25509;SDS011;13413;52.336;21.200;2023-07-29T02:12:22;13.10;;;9.80;;
25509;SDS011;13413;52.336;21.200;2023-07-29T02:15:16;24.20;;;12.00;;
25509;SDS011;13413;52.336;21.200;2023-07-29T02:26:35;22.20;;;12.90;;
25509;SDS011;13413;52.336;21.200;2023-07-29T02:29:29;14.40;;;11.00;;
25509;SDS011;13413;52.336;21.200;2023-07-29T02:32:23;13.10;;;10.80;;
25509;SDS011;13413;52.336;21.200;2023-07-29T02:35:17;16.20;;;10.80;;
25509;SDS011;13413;52.336;21.200;2023-07-29T02:38:11;11.90;;;10.50;;
25509;SDS011;13413;52.336;21.200;2023-07-29T02:41:05;11.20;;;10.10;;
25509;SDS011;13413;52.336;21.200;2023-07-29T02:44:00;12.20;;;10.30;;
25509;SDS011;13413;52.336;21.200;2023-07-29T02:46:54;10.50;;;9.50;;
25509;SDS011;13413;52.336;21.200;2023-07-29T02:49:48;13.00;;;10.30;;
25509;SDS011;13413;52.336;21.200;2023-07-29T02:52:42;13.00;;;10.60;;
25509;SDS011;13413;52.336;21.200;2023-07-29T02:55:36;10.90;;;9.90;;
25509;SDS011;13413;52.336;21.200;2023-07-29T02:58:33;11.90;;;9.80;;
25509;SDS011;13413;52.336;21.200;2023-07-29T03:01:27;18.00;;;10.40;;
25509;SDS011;13413;52.336;21.200;2023-07-29T03:04:21;13.50;;;10.70;;
25509;SDS011;13413;52.336;21.200;2023-07-29T03:07:15;32.90;;;11.10;;
25509;SDS011;13413;52.336;21.200;2023-07-29T03:10:09;18.10;;;10.90;;
25509;SDS011;13413;52.336;21.200;2023-07-29T03:13:04;17.60;;;11.00;;
25509;SDS011;13413;52.336;21.200;2023-07-29T03:16:05;14.70;;;10.00;;
25509;SDS011;13413;52.336;21.200;2023-07-29T03:19:01;14.50;;;8.70;;
25509;SDS011;13413;52.336;21.200;2023-07-29T03:21:55;10.20;;;9.30;;
25509;SDS011;13413;52.336;21.200;2023-07-29T03:24:49;14.10;;;10.20;;
25509;SDS011;13413;52.336;21.200;2023-07-29T03:27:43;13.90;;;9.30;;
25509;SDS011;13413;52.336;21.200;2023-07-29T03:30:37;17.30;;;9.40;;
25509;SDS011;13413;52.336;21.200;2023-07-29T03:33:31;13.00;;;8.70;;
25509;SDS011;13413;52.336;21.200;2023-07-29T03:36:25;17.30;;;10.20;;
25509;SDS011;13413;52.336;21.200;2023-07-29T03:39:19;10.10;;;8.90;;
25509;SDS011;13413;52.336;21.200;2023-07-29T03:42:13;10.20;;;9.30;;
25509;SDS011;13413;52.336;21.200;2023-07-29T03:45:08;13.30;;;8.60;;
25509;SDS011;13413;52.336;21.200;2023-07-29T03:48:02;32.10;;;9.30;;
25509;SDS011;13413;52.336;21.200;2023-07-29T03:50:57;23.10;;;9.30;;
25509;SDS011;13413;52.336;21.200;2023-07-29T03:53:51;30.70;;;10.50;;
25509;SDS011;13413;52.336;21.200;2023-07-29T03:59:55;11.50;;;10.30;;
25509;SDS011;13413;52.336;21.200;2023-07-29T04:02:49;11.10;;;10.00;;
25509;SDS011;13413;52.336;21.200;2023-07-29T04:05:43;11.60;;;9.70;;
25509;SDS011;13413;52.336;21.200;2023-07-29T04:08:37;24.40;;;9.50;;
25509;SDS011;13413;52.336;21.200;2023-07-29T04:11:31;11.50;;;10.40;;
25509;SDS011;13413;52.336;21.200;2023-07-29T04:14:25;11.80;;;10.60;;
25509;SDS011;13413;52.336;21.200;2023-07-29T04:17:19;22.00;;;10.90;;
25509;SDS011;13413;52.336;21.200;2023-07-29T04:20:13;15.50;;;10.40;;
25509;SDS011;13413;52.336;21.200;2023-07-29T04:23:07;37.10;;;9.70;;
25509;SDS011;13413;52.336;21.200;2023-07-29T04:26:01;23.90;;;11.20;;
25509;SDS011;13413;52.336;21.200;2023-07-29T04:28:55;12.70;;;11.40;;
25509;SDS011;13413;52.336;21.200;2023-07-29T04:31:49;28.60;;;11.70;;
25509;SDS011;13413;52.336;21.200;2023-07-29T04:34:43;34.20;;;11.70;;
25509;SDS011;13413;52.336;21.200;2023-07-29T04:43:18;15.80;;;12.90;;
25509;SDS011;13413;52.336;21.200;2023-07-29T04:46:12;24.90;;;14.80;;
25509;SDS011;13413;52.336;21.200;2023-07-29T04:49:06;25.20;;;15.60;;
25509;SDS011;13413;52.336;21.200;2023-07-29T04:52:00;18.20;;;15.20;;
25509;SDS011;13413;52.336;21.200;2023-07-29T04:54:57;26.30;;;13.50;;
25509;SDS011;13413;52.336;21.200;2023-07-29T04:57:50;62.80;;;15.10;;
25509;SDS011;13413;52.336;21.200;2023-07-29T05:00:45;17.50;;;14.70;;
25509;SDS011;13413;52.336;21.200;2023-07-29T05:03:39;15.20;;;13.50;;
25509;SDS011;13413;52.336;21.200;2023-07-29T05:06:33;18.90;;;14.30;;
25509;SDS011;13413;52.336;21.200;2023-07-29T05:09:27;16.30;;;14.00;;
25509;SDS011;13413;52.336;21.200;2023-07-29T05:12:21;17.70;;;14.20;;
25509;SDS011;13413;52.336;21.200;2023-07-29T05:15:15;14.90;;;13.30;;
25509;SDS011;13413;52.336;21.200;2023-07-29T05:18:09;17.40;;;15.10;;
25509;SDS011;13413;52.336;21.200;2023-07-29T05:21:03;16.20;;;14.50;;
25509;SDS011;13413;52.336;21.200;2023-07-29T05:23:57;16.80;;;15.00;;
25509;SDS011;13413;52.336;21.200;2023-07-29T05:26:51;17.80;;;14.50;;
25509;SDS011;13413;52.336;21.200;2023-07-29T05:29:45;16.80;;;15.10;;
25509;SDS011;13413;52.336;21.200;2023-07-29T05:32:39;15.70;;;14.00;;
25509;SDS011;13413;52.336;21.200;2023-07-29T05:35:33;16.40;;;14.70;;
25509;SDS011;13413;52.336;21.200;2023-07-29T05:38:27;17.40;;;15.60;;
25509;SDS011;13413;52.336;21.200;2023-07-29T05:41:21;17.10;;;15.40;;
25509;SDS011;13413;52.336;21.200;2023-07-29T05:44:15;17.20;;;14.70;;
25509;SDS011;13413;52.336;21.200;2023-07-29T05:47:09;16.40;;;14.80;;
25509;SDS011;13413;52.336;21.200;2023-07-29T05:53:10;16.20;;;14.40;;
25509;SDS011;13413;52.336;21.200;2023-07-29T05:56:07;18.00;;;16.20;;
25509;SDS011;13413;52.336;21.200;2023-07-29T05:59:00;17.80;;;15.60;;
25509;SDS011;13413;52.336;21.200;2023-07-29T06:01:54;17.20;;;15.50;;
25509;SDS011;13413;52.336;21.200;2023-07-29T06:04:48;18.10;;;16.10;;
25509;SDS011;13413;52.336;21.200;2023-07-29T06:07:42;18.00;;;16.20;;
25509;SDS011;13413;52.336;21.200;2023-07-29T06:10:36;17.10;;;15.40;;
25509;SDS011;13413;52.336;21.200;2023-07-29T06:13:30;17.70;;;15.90;;
25509;SDS011;13413;52.336;21.200;2023-07-29T06:16:24;18.50;;;16.40;;
25509;SDS011;13413;52.336;21.200;2023-07-29T06:19:19;18.40;;;16.60;;
25509;SDS011;13413;52.336;21.200;2023-07-29T06:22:13;17.70;;;15.90;;
25509;SDS011;13413;52.336;21.200;2023-07-29T06:25:08;23.50;;;17.10;;
25509;SDS011;13413;52.336;21.200;2023-07-29T06:28:02;17.90;;;16.10;;
25509;SDS011;13413;52.336;21.200;2023-07-29T06:30:56;18.20;;;16.20;;
25509;SDS011;13413;52.336;21.200;2023-07-29T06:33:50;17.90;;;16.00;;
25509;SDS011;13413;52.336;21.200;2023-07-29T06:36:47;18.20;;;16.20;;
25509;SDS011;13413;52.336;21.200;2023-07-29T06:39:41;17.80;;;15.90;;
25509;SDS011;13413;52.336;21.200;2023-07-29T06:42:35;18.60;;;15.70;;
25509;SDS011;13413;52.336;21.200;2023-07-29T06:45:29;16.00;;;14.30;;
25509;SDS011;13413;52.336;21.200;2023-07-29T06:48:23;16.40;;;14.70;;
25509;SDS011;13413;52.336;21.200;2023-07-29T06:51:17;18.30;;;16.00;;
25509;SDS011;13413;52.336;21.200;2023-07-29T06:59:46;14.80;;;13.30;;
25509;SDS011;13413;52.336;21.200;2023-07-29T07:02:40;14.90;;;13.30;;
25509;SDS011;13413;52.336;21.200;2023-07-29T07:05:40;13.80;;;12.40;;
25509;SDS011;13413;52.336;21.200;2023-07-29T07:08:35;13.80;;;12.40;;
25509;SDS011;13413;52.336;21.200;2023-07-29T07:11:29;12.30;;;11.10;;
25509;SDS011;13413;52.336;21.200;2023-07-29T07:14:23;13.60;;;11.80;;
25509;SDS011;13413;52.336;21.200;2023-07-29T07:17:17;11.60;;;10.50;;
25509;SDS011;13413;52.336;21.200;2023-07-29T07:23:05;12.00;;;10.80;;
25509;SDS011;13413;52.336;21.200;2023-07-29T07:25:59;11.50;;;9.90;;
25509;SDS011;13413;52.336;21.200;2023-07-29T07:28:53;12.20;;;11.10;;
25509;SDS011;13413;52.336;21.200;2023-07-29T07:31:51;11.10;;;9.90;;
25509;SDS011;13413;52.336;21.200;2023-07-29T07:34:46;12.10;;;9.40;;
25509;SDS011;13413;52.336;21.200;2023-07-29T07:37:39;11.80;;;10.20;;
25509;SDS011;13413;52.336;21.200;2023-07-29T07:40:34;12.10;;;8.50;;
25509;SDS011;13413;52.336;21.200;2023-07-29T07:43:28;10.20;;;8.30;;
25509;SDS011;13413;52.336;21.200;2023-07-29T07:46:22;8.70;;;7.80;;
25509;SDS011;13413;52.336;21.200;2023-07-29T07:49:15;10.30;;;7.30;;
25509;SDS011;13413;52.336;21.200;2023-07-29T07:52:10;7.50;;;6.70;;
25509;SDS011;13413;52.336;21.200;2023-07-29T07:55:04;7.60;;;6.80;;
25509;SDS011;13413;52.336;21.200;2023-07-29T07:57:59;9.00;;;7.20;;
25509;SDS011;13413;52.336;21.200;2023-07-29T08:00:53;8.90;;;7.60;;
25509;SDS011;13413;52.336;21.200;2023-07-29T08:03:55;9.30;;;7.40;;
25509;SDS011;13413;52.336;21.200;2023-07-29T08:06:49;8.30;;;7.20;;
25509;SDS011;13413;52.336;21.200;2023-07-29T08:09:44;8.60;;;7.70;;
25509;SDS011;13413;52.336;21.200;2023-07-29T08:15:30;8.30;;;7.50;;
25509;SDS011;13413;52.336;21.200;2023-07-29T08:18:24;8.00;;;7.30;;
25509;SDS011;13413;52.336;21.200;2023-07-29T08:21:18;10.50;;;7.60;;
25509;SDS011;13413;52.336;21.200;2023-07-29T08:24:12;11.20;;;7.30;;
25509;SDS011;13413;52.336;21.200;2023-07-29T08:27:06;8.20;;;7.40;;
25509;SDS011;13413;52.336;21.200;2023-07-29T08:30:00;10.90;;;7.60;;
25509;SDS011;13413;52.336;21.200;2023-07-29T08:32:54;8.00;;;6.50;;
25509;SDS011;13413;52.336;21.200;2023-07-29T08:35:48;8.60;;;6.80;;
25509;SDS011;13413;52.336;21.200;2023-07-29T08:38:42;7.20;;;5.50;;
25509;SDS011;13413;52.336;21.200;2023-07-29T08:41:37;5.60;;;5.10;;
25509;SDS011;13413;52.336;21.200;2023-07-29T08:44:39;6.80;;;6.20;;
25509;SDS011;13413;52.336;21.200;2023-07-29T08:47:34;6.90;;;6.40;;
25509;SDS011;13413;52.336;21.200;2023-07-29T08:50:28;10.20;;;6.60;;
25509;SDS011;13413;52.336;21.200;2023-07-29T08:53:24;9.80;;;8.80;;
25509;SDS011;13413;52.336;21.200;2023-07-29T08:56:18;8.10;;;7.30;;
25509;SDS011;13413;52.336;21.200;2023-07-29T08:59:12;8.60;;;7.80;;
25509;SDS011;13413;52.336;21.200;2023-07-29T09:02:08;10.80;;;8.10;;
25509;SDS011;13413;52.336;21.200;2023-07-29T09:05:02;8.30;;;7.50;;
25509;SDS011;13413;52.336;21.200;2023-07-29T09:07:57;7.90;;;7.30;;
25509;SDS011;13413;52.336;21.200;2023-07-29T09:10:51;7.50;;;6.90;;
25509;SDS011;13413;52.336;21.200;2023-07-29T09:20:08;9.30;;;8.50;;
25509;SDS011;13413;52.336;21.200;2023-07-29T09:23:06;8.80;;;7.90;;
25509;SDS011;13413;52.336;21.200;2023-07-29T09:26:04;8.20;;;7.30;;
25509;SDS011;13413;52.336;21.200;2023-07-29T09:28:58;8.20;;;7.50;;
25509;SDS011;13413;52.336;21.200;2023-07-29T09:31:53;8.00;;;7.30;;
25509;SDS011;13413;52.336;21.200;2023-07-29T09:35:11;7.30;;;6.60;;
25509;SDS011;13413;52.336;21.200;2023-07-29T09:38:05;6.80;;;5.90;;
25509;SDS011;13413;52.336;21.200;2023-07-29T09:41:00;7.10;;;6.50;;
25509;SDS011;13413;52.336;21.200;2023-07-29T09:43:57;6.90;;;6.30;;
25509;SDS011;13413;52.336;21.200;2023-07-29T09:46:53;6.60;;;6.10;;
25509;SDS011;13413;52.336;21.200;2023-07-29T09:49:50;6.40;;;5.80;;
25509;SDS011;13413;52.336;21.200;2023-07-29T09:52:45;11.80;;;5.90;;
25509;SDS011;13413;52.336;21.200;2023-07-29T09:55:40;6.00;;;5.40;;
25509;SDS011;13413;52.336;21.200;2023-07-29T09:58:40;6.50;;;4.90;;
25509;SDS011;13413;52.336;21.200;2023-07-29T10:01:36;6.60;;;5.70;;
25509;SDS011;13413;52.336;21.200;2023-07-29T10:04:31;7.60;;;5.30;;
25509;SDS011;13413;52.336;21.200;2023-07-29T10:07:26;6.20;;;5.50;;
25509;SDS011;13413;52.336;21.200;2023-07-29T10:10:19;6.70;;;5.10;;
25509;SDS011;13413;52.336;21.200;2023-07-29T10:13:14;5.90;;;5.40;;
25509;SDS011;13413;52.336;21.200;2023-07-29T10:19:02;5.10;;;4.70;;
25509;SDS011;13413;52.336;21.200;2023-07-29T10:21:59;4.80;;;4.30;;
25509;SDS011;13413;52.336;21.200;2023-07-29T10:24:56;5.20;;;4.80;;
25509;SDS011;13413;52.336;21.200;2023-07-29T10:27:56;5.70;;;3.80;;
25509;SDS011;13413;52.336;21.200;2023-07-29T10:30:55;4.50;;;4.10;;
25509;SDS011;13413;52.336;21.200;2023-07-29T10:33:50;4.70;;;4.20;;
25509;SDS011;13413;52.336;21.200;2023-07-29T10:36:45;4.60;;;4.10;;
25509;SDS011;13413;52.336;21.200;2023-07-29T10:39:40;6.50;;;3.50;;
25509;SDS011;13413;52.336;21.200;2023-07-29T10:49:07;4.40;;;2.90;;
25509;SDS011;13413;52.336;21.200;2023-07-29T10:52:01;2.50;;;2.30;;
25509;SDS011;13413;52.336;21.200;2023-07-29T10:54:55;3.40;;;2.10;;
25509;SDS011;13413;52.336;21.200;2023-07-29T10:57:49;2.50;;;2.30;;
25509;SDS011;13413;52.336;21.200;2023-07-29T11:00:43;3.40;;;2.60;;
25509;SDS011;13413;52.336;21.200;2023-07-29T11:03:38;2.90;;;2.60;;
25509;SDS011;13413;52.336;21.200;2023-07-29T11:06:32;3.20;;;2.90;;
25509;SDS011;13413;52.336;21.200;2023-07-29T11:09:53;3.50;;;2.70;;
25509;SDS011;13413;52.336;21.200;2023-07-29T11:12:49;2.20;;;2.10;;
25509;SDS011;13413;52.336;21.200;2023-07-29T11:15:44;2.40;;;2.20;;
25509;SDS011;13413;52.336;21.200;2023-07-29T11:18:41;2.50;;;2.30;;
25509;SDS011;13413;52.336;21.200;2023-07-29T11:21:36;2.80;;;2.40;;
25509;SDS011;13413;52.336;21.200;2023-07-29T11:24:30;4.00;;;1.90;;
25509;SDS011;13413;52.336;21.200;2023-07-29T11:27:24;2.90;;;2.60;;
25509;SDS011;13413;52.336;21.200;2023-07-29T11:36:00;3.30;;;2.20;;
25509;SDS011;13413;52.336;21.200;2023-07-29T11:38:53;3.50;;;2.10;;
25509;SDS011;13413;52.336;21.200;2023-07-29T11:41:47;2.30;;;2.10;;
25509;SDS011;13413;52.336;21.200;2023-07-29T11:44:41;2.60;;;2.40;;
25509;SDS011;13413;52.336;21.200;2023-07-29T11:47:35;2.00;;;1.80;;
25509;SDS011;13413;52.336;21.200;2023-07-29T11:50:29;6.00;;;2.50;;
25509;SDS011;13413;52.336;21.200;2023-07-29T11:53:23;2.60;;;2.40;;
25509;SDS011;13413;52.336;21.200;2023-07-29T11:56:20;2.60;;;2.30;;
25509;SDS011;13413;52.336;21.200;2023-07-29T11:59:14;2.30;;;2.10;;
25509;SDS011;13413;52.336;21.200;2023-07-29T12:02:10;2.50;;;2.30;;
25509;SDS011;13413;52.336;21.200;2023-07-29T12:05:06;2.40;;;2.20;;
25509;SDS011;13413;52.336;21.200;2023-07-29T12:08:01;2.50;;;2.30;;
25509;SDS011;13413;52.336;21.200;2023-07-29T12:10:55;2.90;;;1.70;;
25509;SDS011;13413;52.336;21.200;2023-07-29T12:13:49;3.70;;;1.80;;
25509;SDS011;13413;52.336;21.200;2023-07-29T12:16:44;2.10;;;1.90;;
25509;SDS011;13413;52.336;21.200;2023-07-29T12:22:32;1.90;;;1.70;;
25509;SDS011;13413;52.336;21.200;2023-07-29T12:25:27;1.70;;;1.60;;
25509;SDS011;13413;52.336;21.200;2023-07-29T12:28:23;1.60;;;1.50;;
25509;SDS011;13413;52.336;21.200;2023-07-29T12:31:16;1.90;;;1.80;;
25509;SDS011;13413;52.336;21.200;2023-07-29T12:34:10;3.40;;;1.60;;
25509;SDS011;13413;52.336;21.200;2023-07-29T12:37:10;2.80;;;1.70;;
25509;SDS011;13413;52.336;21.200;2023-07-29T12:40:05;2.20;;;1.40;;
25509;SDS011;13413;52.336;21.200;2023-07-29T12:43:00;2.90;;;2.30;;
25509;SDS011;13413;52.336;21.200;2023-07-29T12:45:56;3.50;;;1.90;;
25509;SDS011;13413;52.336;21.200;2023-07-29T12:48:50;2.50;;;1.80;;
25509;SDS011;13413;52.336;21.200;2023-07-29T12:51:44;1.90;;;1.70;;
25509;SDS011;13413;52.336;21.200;2023-07-29T12:54:39;3.60;;;1.60;;
25509;SDS011;13413;52.336;21.200;2023-07-29T12:57:32;2.00;;;1.70;;
25509;SDS011;13413;52.336;21.200;2023-07-29T13:00:26;1.80;;;1.70;;
25509;SDS011;13413;52.336;21.200;2023-07-29T13:03:21;2.80;;;2.10;;
25509;SDS011;13413;52.336;21.200;2023-07-29T13:06:15;3.30;;;2.50;;
25509;SDS011;13413;52.336;21.200;2023-07-29T13:09:08;1.70;;;1.60;;
25509;SDS011;13413;52.336;21.200;2023-07-29T13:12:02;2.20;;;2.00;;
25509;SDS011;13413;52.336;21.200;2023-07-29T13:14:58;2.70;;;2.40;;
25509;SDS011;13413;52.336;21.200;2023-07-29T13:17:52;2.80;;;2.40;;
25509;SDS011;13413;52.336;21.200;2023-07-29T13:20:45;2.20;;;2.00;;
25509;SDS011;13413;52.336;21.200;2023-07-29T13:23:40;4.00;;;2.40;;
25509;SDS011;13413;52.336;21.200;2023-07-29T13:26:33;2.30;;;2.10;;
25509;SDS011;13413;52.336;21.200;2023-07-29T13:29:27;2.10;;;1.90;;
25509;SDS011;13413;52.336;21.200;2023-07-29T13:32:21;7.60;;;2.70;;
25509;SDS011;13413;52.336;21.200;2023-07-29T13:35:15;2.40;;;2.10;;
25509;SDS011;13413;52.336;21.200;2023-07-29T13:38:09;2.40;;;2.20;;
25509;SDS011;13413;52.336;21.200;2023-07-29T13:41:04;2.30;;;2.10;;
25509;SDS011;13413;52.336;21.200;2023-07-29T13:43:58;3.00;;;2.70;;
25509;SDS011;13413;52.336;21.200;2023-07-29T13:55:28;2.30;;;2.10;;
25509;SDS011;13413;52.336;21.200;2023-07-29T13:58:22;3.30;;;2.30;;
25509;SDS011;13413;52.336;21.200;2023-07-29T14:01:15;2.80;;;2.60;;
25509;SDS011;13413;52.336;21.200;2023-07-29T14:04:09;2.30;;;2.10;;
25509;SDS011;13413;52.336;21.200;2023-07-29T14:07:04;2.50;;;2.10;;
25509;SDS011;13413;52.336;21.200;2023-07-29T14:09:58;4.40;;;2.00;;
25509;SDS011;13413;52.336;21.200;2023-07-29T14:12:52;2.90;;;2.30;;
25509;SDS011;13413;52.336;21.200;2023-07-29T14:15:46;2.50;;;2.30;;
25509;SDS011;13413;52.336;21.200;2023-07-29T14:18:39;2.70;;;2.00;;
25509;SDS011;13413;52.336;21.200;2023-07-29T14:21:36;3.90;;;2.00;;
25509;SDS011;13413;52.336;21.200;2023-07-29T14:24:31;2.10;;;2.00;;
25509;SDS011;13413;52.336;21.200;2023-07-29T14:27:39;2.20;;;2.00;;
25509;SDS011;13413;52.336;21.200;2023-07-29T14:30:33;2.30;;;2.20;;
25509;SDS011;13413;52.336;21.200;2023-07-29T14:33:40;2.20;;;2.10;;
25509;SDS011;13413;52.336;21.200;2023-07-29T14:36:34;3.90;;;2.40;;
25509;SDS011;13413;52.336;21.200;2023-07-29T14:39:28;2.50;;;2.30;;
25509;SDS011;13413;52.336;21.200;2023-07-29T14:42:21;3.60;;;2.00;;
25509;SDS011;13413;52.336;21.200;2023-07-29T14:45:16;3.90;;;2.40;;
25509;SDS011;13413;52.336;21.200;2023-07-29T14:48:09;2.90;;;2.60;;
25509;SDS011;13413;52.336;21.200;2023-07-29T14:51:03;4.30;;;2.20;;
25509;SDS011;13413;52.336;21.200;2023-07-29T14:53:56;2.60;;;2.20;;
25509;SDS011;13413;52.336;21.200;2023-07-29T14:56:51;3.70;;;2.30;;
25509;SDS011;13413;52.336;21.200;2023-07-29T14:59:45;2.70;;;2.40;;
25509;SDS011;13413;52.336;21.200;2023-07-29T15:02:38;3.30;;;2.40;;
25509;SDS011;13413;52.336;21.200;2023-07-29T15:05:33;2.90;;;2.70;;
25509;SDS011;13413;52.336;21.200;2023-07-29T15:08:27;2.40;;;2.20;;
25509;SDS011;13413;52.336;21.200;2023-07-29T15:11:21;4.60;;;3.00;;
25509;SDS011;13413;52.336;21.200;2023-07-29T15:14:14;2.90;;;2.50;;
25509;SDS011;13413;52.336;21.200;2023-07-29T15:17:09;2.50;;;2.30;;
25509;SDS011;13413;52.336;21.200;2023-07-29T15:20:03;3.70;;;2.50;;
25509;SDS011;13413;52.336;21.200;2023-07-29T15:22:58;3.50;;;2.20;;
25509;SDS011;13413;52.336;21.200;2023-07-29T15:25:52;3.70;;;2.90;;
25509;SDS011;13413;52.336;21.200;2023-07-29T15:28:46;3.30;;;2.30;;
25509;SDS011;13413;52.336;21.200;2023-07-29T15:31:41;3.40;;;2.00;;
25509;SDS011;13413;52.336;21.200;2023-07-29T15:34:35;2.70;;;2.40;;
25509;SDS011;13413;52.336;21.200;2023-07-29T15:37:29;4.40;;;2.50;;
25509;SDS011;13413;52.336;21.200;2023-07-29T15:40:23;2.80;;;2.60;;
25509;SDS011;13413;52.336;21.200;2023-07-29T15:43:17;2.50;;;2.00;;
25509;SDS011;13413;52.336;21.200;2023-07-29T15:46:11;3.00;;;2.40;;
25509;SDS011;13413;52.336;21.200;2023-07-29T15:49:05;3.00;;;2.80;;
25509;SDS011;13413;52.336;21.200;2023-07-29T15:51:59;2.70;;;2.50;;
25509;SDS011;13413;52.336;21.200;2023-07-29T15:54:54;3.70;;;2.60;;
25509;SDS011;13413;52.336;21.200;2023-07-29T15:57:49;2.40;;;2.20;;
25509;SDS011;13413;52.336;21.200;2023-07-29T16:00:47;2.70;;;2.50;;
25509;SDS011;13413;52.336;21.200;2023-07-29T16:03:41;2.40;;;2.00;;
25509;SDS011;13413;52.336;21.200;2023-07-29T16:15:42;5.60;;;2.40;;
25509;SDS011;13413;52.336;21.200;2023-07-29T16:18:36;3.10;;;2.80;;
25509;SDS011;13413;52.336;21.200;2023-07-29T16:21:30;2.80;;;2.60;;
25509;SDS011;13413;52.336;21.200;2023-07-29T16:24:24;2.60;;;2.40;;
25509;SDS011;13413;52.336;21.200;2023-07-29T16:27:18;2.50;;;2.30;;
25509;SDS011;13413;52.336;21.200;2023-07-29T16:30:12;3.60;;;2.90;;
25509;SDS011;13413;52.336;21.200;2023-07-29T16:33:06;2.80;;;2.60;;
25509;SDS011;13413;52.336;21.200;2023-07-29T16:36:00;3.90;;;2.50;;
25509;SDS011;13413;52.336;21.200;2023-07-29T16:38:54;2.70;;;2.50;;
25509;SDS011;13413;52.336;21.200;2023-07-29T16:41:48;3.10;;;2.50;;
25509;SDS011;13413;52.336;21.200;2023-07-29T16:44:42;3.40;;;2.90;;
25509;SDS011;13413;52.336;21.200;2023-07-29T16:47:36;5.50;;;3.00;;
25509;SDS011;13413;52.336;21.200;2023-07-29T16:50:30;3.90;;;2.80;;
25509;SDS011;13413;52.336;21.200;2023-07-29T16:53:24;2.70;;;2.50;;
25509;SDS011;13413;52.336;21.200;2023-07-29T16:56:18;2.50;;;2.40;;
25509;SDS011;13413;52.336;21.200;2023-07-29T16:59:12;3.70;;;2.90;;
25509;SDS011;13413;52.336;21.200;2023-07-29T17:02:06;4.40;;;3.30;;
25509;SDS011;13413;52.336;21.200;2023-07-29T17:05:00;2.70;;;2.50;;
25509;SDS011;13413;52.336;21.200;2023-07-29T17:07:54;3.40;;;3.10;;
25509;SDS011;13413;52.336;21.200;2023-07-29T17:10:48;3.20;;;2.90;;
25509;SDS011;13413;52.336;21.200;2023-07-29T17:13:42;3.20;;;2.80;;
25509;SDS011;13413;52.336;21.200;2023-07-29T17:16:36;3.20;;;2.70;;
25509;SDS011;13413;52.336;21.200;2023-07-29T17:19:30;2.90;;;2.70;;
25509;SDS011;13413;52.336;21.200;2023-07-29T17:22:24;4.40;;;2.80;;
25509;SDS011;13413;52.336;21.200;2023-07-29T17:25:18;4.90;;;2.80;;
25509;SDS011;13413;52.336;21.200;2023-07-29T17:28:12;2.40;;;2.20;;
25509;SDS011;13413;52.336;21.200;2023-07-29T17:31:06;4.10;;;2.70;;
25509;SDS011;13413;52.336;21.200;2023-07-29T17:34:00;3.20;;;2.70;;
25509;SDS011;13413;52.336;21.200;2023-07-29T17:36:54;4.40;;;2.90;;
25509;SDS011;13413;52.336;21.200;2023-07-29T17:39:48;3.90;;;2.80;;
25509;SDS011;13413;52.336;21.200;2023-07-29T17:42:44;4.00;;;2.90;;
25509;SDS011;13413;52.336;21.200;2023-07-29T17:45:38;2.90;;;2.70;;
25509;SDS011;13413;52.336;21.200;2023-07-29T17:48:34;3.80;;;3.50;;
25509;SDS011;13413;52.336;21.200;2023-07-29T17:51:28;3.80;;;3.20;;
25509;SDS011;13413;52.336;21.200;2023-07-29T17:54:22;3.10;;;2.80;;
25509;SDS011;13413;52.336;21.200;2023-07-29T17:57:16;4.60;;;3.10;;
25509;SDS011;13413;52.336;21.200;2023-07-29T18:00:13;3.50;;;3.20;;
25509;SDS011;13413;52.336;21.200;2023-07-29T18:03:07;3.10;;;2.80;;
25509;SDS011;13413;52.336;21.200;2023-07-29T18:06:01;4.90;;;3.20;;
25509;SDS011;13413;52.336;21.200;2023-07-29T18:09:02;3.80;;;3.50;;
25509;SDS011;13413;52.336;21.200;2023-07-29T18:11:56;6.00;;;3.40;;
25509;SDS011;13413;52.336;21.200;2023-07-29T18:14:50;4.10;;;3.80;;
25509;SDS011;13413;52.336;21.200;2023-07-29T18:17:44;4.30;;;3.90;;
25509;SDS011;13413;52.336;21.200;2023-07-29T18:20:38;7.30;;;4.30;;
25509;SDS011;13413;52.336;21.200;2023-07-29T18:26:25;4.60;;;3.50;;
25509;SDS011;13413;52.336;21.200;2023-07-29T18:35:41;4.20;;;3.10;;
25509;SDS011;13413;52.336;21.200;2023-07-29T18:38:35;3.90;;;3.40;;
25509;SDS011;13413;52.336;21.200;2023-07-29T18:41:29;5.20;;;3.90;;